sensor_id;sensor_type;location;lat;lon;timestamp;temperature;humidity
26947;DHT22;14501;52.282;10.560;2024-02-21T00:01:50;7.60;99.90
26947;DHT22;14501;52.282;10.560;2024-02-21T00:04:15;7.70;99.90
26947;DHT22;14501;52.282;10.560;2024-02-21T00:06:41;7.70;99.90
26947;DHT22;14501;52.282;10.560;2024-02-21T00:09:07;7.70;99.90
26947;DHT22;14501;52.282;10.560;2024-02-21T00:11:35;7.70;99.90
26947;DHT22;14501;52.282;10.560;2024-02-21T00:14:00;7.60;99.90
26947;DHT22;14501;52.282;10.560;2024-02-21T00:16:26;7.70;99.90
26947;DHT22;14501;52.282;10.560;2024-02-21T00:18:52;7.70;99.90
26947;DHT22;14501;52.282;10.560;2024-02-21T00:21:17;7.70;99.90
26947;DHT22;14501;52.282;10.560;2024-02-21T00:23:46;7.70;99.90
26947;DHT22;14501;52.282;10.560;2024-02-21T00:26:13;7.70;99.90
26947;DHT22;14501;52.282;10.560;2024-02-21T00:28:41;7.70;99.90
26947;DHT22;14501;52.282;10.560;2024-02-21T00:31:07;7.70;99.90
26947;DHT22;14501;52.282;10.560;2024-02-21T00:33:32;7.70;99.90
26947;DHT22;14501;52.282;10.560;2024-02-21T00:35:58;7.70;99.90
26947;DHT22;14501;52.282;10.560;2024-02-21T00:38:23;7.70;99.90
26947;DHT22;14501;52.282;10.560;2024-02-21T00:40:49;7.70;99.90
26947;DHT22;14501;52.282;10.560;2024-02-21T00:43:15;7.70;99.90
26947;DHT22;14501;52.282;10.560;2024-02-21T00:45:40;7.70;99.90
26947;DHT22;14501;52.282;10.560;2024-02-21T00:48:06;7.70;99.90
26947;DHT22;14501;52.282;10.560;2024-02-21T00:50:32;7.70;99.90
26947;DHT22;14501;52.282;10.560;2024-02-21T00:52:58;7.70;99.90
26947;DHT22;14501;52.282;10.560;2024-02-21T00:55:24;7.70;99.90
26947;DHT22;14501;52.282;10.560;2024-02-21T00:57:50;7.70;99.90
26947;DHT22;14501;52.282;10.560;2024-02-21T01:00:16;7.70;99.90
26947;DHT22;14501;52.282;10.560;2024-02-21T01:02:41;7.80;99.90
26947;DHT22;14501;52.282;10.560;2024-02-21T01:05:07;7.80;99.90
26947;DHT22;14501;52.282;10.560;2024-02-21T01:07:33;7.80;99.90
26947;DHT22;14501;52.282;10.560;2024-02-21T01:09:58;7.80;99.90
26947;DHT22;14501;52.282;10.560;2024-02-21T01:12:25;7.80;99.90
26947;DHT22;14501;52.282;10.560;2024-02-21T01:14:50;7.90;99.90
26947;DHT22;14501;52.282;10.560;2024-02-21T01:17:16;7.90;99.90
26947;DHT22;14501;52.282;10.560;2024-02-21T01:19:42;7.90;99.90
26947;DHT22;14501;52.282;10.560;2024-02-21T01:22:07;7.90;99.90
26947;DHT22;14501;52.282;10.560;2024-02-21T01:24:33;7.90;99.90
26947;DHT22;14501;52.282;10.560;2024-02-21T01:26:59;7.90;99.90
26947;DHT22;14501;52.282;10.560;2024-02-21T01:29:24;7.90;99.90
26947;DHT22;14501;52.282;10.560;2024-02-21T01:31:50;7.90;99.90
26947;DHT22;14501;52.282;10.560;2024-02-21T01:34:16;7.90;99.90
26947;DHT22;14501;52.282;10.560;2024-02-21T01:36:41;7.90;99.90
26947;DHT22;14501;52.282;10.560;2024-02-21T01:39:07;7.90;99.90
26947;DHT22;14501;52.282;10.560;2024-02-21T01:41:33;8.00;99.90
26947;DHT22;14501;52.282;10.560;2024-02-21T01:43:58;8.00;99.90
26947;DHT22;14501;52.282;10.560;2024-02-21T01:46:24;8.00;99.90
26947;DHT22;14501;52.282;10.560;2024-02-21T01:48:55;8.00;99.90
26947;DHT22;14501;52.282;10.560;2024-02-21T01:51:21;8.00;99.90
26947;DHT22;14501;52.282;10.560;2024-02-21T01:53:47;8.00;99.90
26947;DHT22;14501;52.282;10.560;2024-02-21T01:56:13;8.00;99.90
26947;DHT22;14501;52.282;10.560;2024-02-21T01:58:40;8.00;99.90
26947;DHT22;14501;52.282;10.560;2024-02-21T02:01:07;8.00;99.90
26947;DHT22;14501;52.282;10.560;2024-02-21T02:03:34;8.00;99.90
26947;DHT22;14501;52.282;10.560;2024-02-21T02:06:00;8.00;99.90
26947;DHT22;14501;52.282;10.560;2024-02-21T02:08:26;8.10;99.90
26947;DHT22;14501;52.282;10.560;2024-02-21T02:10:52;8.10;99.90
26947;DHT22;14501;52.282;10.560;2024-02-21T02:13:17;8.10;99.90
26947;DHT22;14501;52.282;10.560;2024-02-21T02:15:44;8.10;99.90
26947;DHT22;14501;52.282;10.560;2024-02-21T02:18:11;8.10;99.90
26947;DHT22;14501;52.282;10.560;2024-02-21T02:20:37;8.10;99.90
26947;DHT22;14501;52.282;10.560;2024-02-21T02:25:42;8.10;99.90
26947;DHT22;14501;52.282;10.560;2024-02-21T02:28:09;8.10;99.90
26947;DHT22;14501;52.282;10.560;2024-02-21T02:30:35;8.10;99.90
26947;DHT22;14501;52.282;10.560;2024-02-21T02:33:04;8.10;99.90
26947;DHT22;14501;52.282;10.560;2024-02-21T02:35:31;8.10;99.90
26947;DHT22;14501;52.282;10.560;2024-02-21T02:37:57;8.20;99.90
26947;DHT22;14501;52.282;10.560;2024-02-21T02:40:23;8.20;99.90
26947;DHT22;14501;52.282;10.560;2024-02-21T02:42:49;8.20;99.90
26947;DHT22;14501;52.282;10.560;2024-02-21T02:45:18;8.20;99.90
26947;DHT22;14501;52.282;10.560;2024-02-21T02:47:47;8.20;99.90
26947;DHT22;14501;52.282;10.560;2024-02-21T02:50:13;8.30;99.90
26947;DHT22;14501;52.282;10.560;2024-02-21T02:52:39;8.10;99.90
26947;DHT22;14501;52.282;10.560;2024-02-21T02:55:05;8.40;99.90
26947;DHT22;14501;52.282;10.560;2024-02-21T02:57:31;8.30;99.90
26947;DHT22;14501;52.282;10.560;2024-02-21T02:59:57;8.40;99.90
26947;DHT22;14501;52.282;10.560;2024-02-21T03:02:23;8.50;99.90
26947;DHT22;14501;52.282;10.560;2024-02-21T03:04:49;8.40;99.90
26947;DHT22;14501;52.282;10.560;2024-02-21T03:07:15;8.50;99.90
26947;DHT22;14501;52.282;10.560;2024-02-21T03:09:41;8.50;99.90
26947;DHT22;14501;52.282;10.560;2024-02-21T03:12:10;8.60;99.90
26947;DHT22;14501;52.282;10.560;2024-02-21T03:14:36;8.50;99.90
26947;DHT22;14501;52.282;10.560;2024-02-21T03:17:02;8.50;99.90
26947;DHT22;14501;52.282;10.560;2024-02-21T03:19:28;8.50;99.90
26947;DHT22;14501;52.282;10.560;2024-02-21T03:21:55;8.60;99.90
26947;DHT22;14501;52.282;10.560;2024-02-21T03:24:21;8.50;99.90
26947;DHT22;14501;52.282;10.560;2024-02-21T03:26:47;8.60;99.90
26947;DHT22;14501;52.282;10.560;2024-02-21T03:29:15;8.60;99.90
26947;DHT22;14501;52.282;10.560;2024-02-21T03:31:41;8.60;99.90
26947;DHT22;14501;52.282;10.560;2024-02-21T03:34:07;8.60;99.90
26947;DHT22;14501;52.282;10.560;2024-02-21T03:36:33;8.60;99.90
26947;DHT22;14501;52.282;10.560;2024-02-21T03:38:58;8.60;99.90
26947;DHT22;14501;52.282;10.560;2024-02-21T03:41:24;8.70;99.90
26947;DHT22;14501;52.282;10.560;2024-02-21T03:43:50;8.70;99.90
26947;DHT22;14501;52.282;10.560;2024-02-21T03:46:16;8.70;99.90
26947;DHT22;14501;52.282;10.560;2024-02-21T03:48:41;8.70;99.90
26947;DHT22;14501;52.282;10.560;2024-02-21T03:51:07;8.70;99.90
26947;DHT22;14501;52.282;10.560;2024-02-21T03:53:33;8.70;99.90
26947;DHT22;14501;52.282;10.560;2024-02-21T03:56:01;8.70;99.90
26947;DHT22;14501;52.282;10.560;2024-02-21T03:58:29;8.70;99.90
26947;DHT22;14501;52.282;10.560;2024-02-21T04:00:55;8.70;99.90
26947;DHT22;14501;52.282;10.560;2024-02-21T04:03:20;8.70;99.90
26947;DHT22;14501;52.282;10.560;2024-02-21T04:05:46;8.70;99.90
26947;DHT22;14501;52.282;10.560;2024-02-21T04:08:12;8.70;99.90
26947;DHT22;14501;52.282;10.560;2024-02-21T04:10:37;8.70;99.90
26947;DHT22;14501;52.282;10.560;2024-02-21T04:13:05;8.60;99.90
26947;DHT22;14501;52.282;10.560;2024-02-21T04:15:31;8.60;99.90
26947;DHT22;14501;52.282;10.560;2024-02-21T04:17:57;8.60;99.90
26947;DHT22;14501;52.282;10.560;2024-02-21T04:20:23;8.60;99.90
26947;DHT22;14501;52.282;10.560;2024-02-21T04:22:48;8.60;99.90
26947;DHT22;14501;52.282;10.560;2024-02-21T04:25:14;8.60;99.90
26947;DHT22;14501;52.282;10.560;2024-02-21T04:27:40;8.60;99.90
26947;DHT22;14501;52.282;10.560;2024-02-21T04:30:06;8.60;99.90
26947;DHT22;14501;52.282;10.560;2024-02-21T04:32:32;8.70;99.90
26947;DHT22;14501;52.282;10.560;2024-02-21T04:34:58;8.70;99.90
26947;DHT22;14501;52.282;10.560;2024-02-21T04:37:24;8.70;99.90
26947;DHT22;14501;52.282;10.560;2024-02-21T04:39:50;8.70;99.90
26947;DHT22;14501;52.282;10.560;2024-02-21T04:42:16;8.70;99.90
26947;DHT22;14501;52.282;10.560;2024-02-21T04:44:42;8.70;99.90
26947;DHT22;14501;52.282;10.560;2024-02-21T04:47:07;8.70;99.90
26947;DHT22;14501;52.282;10.560;2024-02-21T04:49:34;8.70;99.90
26947;DHT22;14501;52.282;10.560;2024-02-21T04:52:00;8.70;99.90
26947;DHT22;14501;52.282;10.560;2024-02-21T04:54:25;8.70;99.90
26947;DHT22;14501;52.282;10.560;2024-02-21T04:56:51;8.70;99.90
26947;DHT22;14501;52.282;10.560;2024-02-21T04:59:17;8.70;99.90
26947;DHT22;14501;52.282;10.560;2024-02-21T05:01:43;8.70;99.90
26947;DHT22;14501;52.282;10.560;2024-02-21T05:04:08;8.70;99.90
26947;DHT22;14501;52.282;10.560;2024-02-21T05:06:41;8.70;99.90
26947;DHT22;14501;52.282;10.560;2024-02-21T05:09:09;8.70;99.90
26947;DHT22;14501;52.282;10.560;2024-02-21T05:11:38;8.70;99.90
26947;DHT22;14501;52.282;10.560;2024-02-21T05:14:04;8.70;99.90
26947;DHT22;14501;52.282;10.560;2024-02-21T05:16:30;8.70;99.90
26947;DHT22;14501;52.282;10.560;2024-02-21T05:18:56;8.70;99.90
26947;DHT22;14501;52.282;10.560;2024-02-21T05:21:25;8.70;99.90
26947;DHT22;14501;52.282;10.560;2024-02-21T05:23:51;8.70;99.90
26947;DHT22;14501;52.282;10.560;2024-02-21T05:26:24;8.70;99.90
26947;DHT22;14501;52.282;10.560;2024-02-21T05:28:50;8.70;99.90
26947;DHT22;14501;52.282;10.560;2024-02-21T05:31:19;8.70;99.90
26947;DHT22;14501;52.282;10.560;2024-02-21T05:33:45;8.70;99.90
26947;DHT22;14501;52.282;10.560;2024-02-21T05:36:12;8.70;99.90
26947;DHT22;14501;52.282;10.560;2024-02-21T05:38:38;8.70;99.90
26947;DHT22;14501;52.282;10.560;2024-02-21T05:41:04;8.80;99.90
26947;DHT22;14501;52.282;10.560;2024-02-21T05:43:30;8.70;99.90
26947;DHT22;14501;52.282;10.560;2024-02-21T05:45:56;8.80;99.90
26947;DHT22;14501;52.282;10.560;2024-02-21T05:48:22;8.80;99.90
26947;DHT22;14501;52.282;10.560;2024-02-21T05:50:48;8.80;99.90
26947;DHT22;14501;52.282;10.560;2024-02-21T05:53:14;8.80;99.90
26947;DHT22;14501;52.282;10.560;2024-02-21T05:55:40;8.80;99.90
26947;DHT22;14501;52.282;10.560;2024-02-21T05:58:06;8.80;99.90
26947;DHT22;14501;52.282;10.560;2024-02-21T06:00:32;8.80;99.90
26947;DHT22;14501;52.282;10.560;2024-02-21T06:02:58;8.80;99.90
26947;DHT22;14501;52.282;10.560;2024-02-21T06:05:24;8.80;99.90
26947;DHT22;14501;52.282;10.560;2024-02-21T06:07:49;8.80;99.90
26947;DHT22;14501;52.282;10.560;2024-02-21T06:10:15;8.80;99.90
26947;DHT22;14501;52.282;10.560;2024-02-21T06:12:41;8.80;99.90
26947;DHT22;14501;52.282;10.560;2024-02-21T06:15:07;8.80;99.90
26947;DHT22;14501;52.282;10.560;2024-02-21T06:17:33;8.80;99.90
26947;DHT22;14501;52.282;10.560;2024-02-21T06:19:58;8.80;99.90
26947;DHT22;14501;52.282;10.560;2024-02-21T06:22:24;8.90;99.90
26947;DHT22;14501;52.282;10.560;2024-02-21T06:24:50;8.80;99.90
26947;DHT22;14501;52.282;10.560;2024-02-21T06:27:16;8.90;99.90
26947;DHT22;14501;52.282;10.560;2024-02-21T06:29:42;8.90;99.90
26947;DHT22;14501;52.282;10.560;2024-02-21T06:32:08;8.90;99.90
26947;DHT22;14501;52.282;10.560;2024-02-21T06:34:34;8.90;99.90
26947;DHT22;14501;52.282;10.560;2024-02-21T06:36:59;8.90;99.90
26947;DHT22;14501;52.282;10.560;2024-02-21T06:39:25;8.90;99.90
26947;DHT22;14501;52.282;10.560;2024-02-21T06:41:51;8.90;99.90
26947;DHT22;14501;52.282;10.560;2024-02-21T06:44:18;8.90;99.90
26947;DHT22;14501;52.282;10.560;2024-02-21T06:46:43;8.90;99.90
26947;DHT22;14501;52.282;10.560;2024-02-21T06:49:09;8.90;99.90
26947;DHT22;14501;52.282;10.560;2024-02-21T06:51:34;8.90;99.90
26947;DHT22;14501;52.282;10.560;2024-02-21T06:54:02;8.90;99.90
26947;DHT22;14501;52.282;10.560;2024-02-21T06:56:28;8.90;99.90
26947;DHT22;14501;52.282;10.560;2024-02-21T06:58:57;8.90;99.90
26947;DHT22;14501;52.282;10.560;2024-02-21T07:01:23;8.90;99.90
26947;DHT22;14501;52.282;10.560;2024-02-21T07:03:49;8.90;99.90
26947;DHT22;14501;52.282;10.560;2024-02-21T07:06:15;8.90;99.90
26947;DHT22;14501;52.282;10.560;2024-02-21T07:08:41;8.90;99.90
26947;DHT22;14501;52.282;10.560;2024-02-21T07:11:06;9.00;99.90
26947;DHT22;14501;52.282;10.560;2024-02-21T07:13:32;9.00;99.90
26947;DHT22;14501;52.282;10.560;2024-02-21T07:15:58;9.00;99.90
26947;DHT22;14501;52.282;10.560;2024-02-21T07:18:23;9.00;99.90
26947;DHT22;14501;52.282;10.560;2024-02-21T07:20:51;9.00;99.90
26947;DHT22;14501;52.282;10.560;2024-02-21T07:23:17;9.00;99.90
26947;DHT22;14501;52.282;10.560;2024-02-21T07:25:43;9.00;99.90
26947;DHT22;14501;52.282;10.560;2024-02-21T07:28:09;9.00;99.90
26947;DHT22;14501;52.282;10.560;2024-02-21T07:30:35;9.20;99.90
26947;DHT22;14501;52.282;10.560;2024-02-21T07:33:01;9.30;99.90
26947;DHT22;14501;52.282;10.560;2024-02-21T07:35:26;9.30;99.90
26947;DHT22;14501;52.282;10.560;2024-02-21T07:37:52;9.30;99.90
26947;DHT22;14501;52.282;10.560;2024-02-21T07:40:17;9.40;99.90
26947;DHT22;14501;52.282;10.560;2024-02-21T07:42:44;9.30;99.90
26947;DHT22;14501;52.282;10.560;2024-02-21T07:45:09;9.30;99.90
26947;DHT22;14501;52.282;10.560;2024-02-21T07:47:36;9.30;99.90
26947;DHT22;14501;52.282;10.560;2024-02-21T07:50:03;9.20;99.90
26947;DHT22;14501;52.282;10.560;2024-02-21T07:52:29;9.10;99.90
26947;DHT22;14501;52.282;10.560;2024-02-21T07:54:54;9.20;99.90
26947;DHT22;14501;52.282;10.560;2024-02-21T07:57:20;9.20;99.90
26947;DHT22;14501;52.282;10.560;2024-02-21T07:59:45;9.10;99.90
26947;DHT22;14501;52.282;10.560;2024-02-21T08:02:16;9.30;99.90
26947;DHT22;14501;52.282;10.560;2024-02-21T08:04:42;9.20;99.90
26947;DHT22;14501;52.282;10.560;2024-02-21T08:07:08;9.30;99.90
26947;DHT22;14501;52.282;10.560;2024-02-21T08:09:34;9.40;99.90
26947;DHT22;14501;52.282;10.560;2024-02-21T08:12:00;9.50;99.90
26947;DHT22;14501;52.282;10.560;2024-02-21T08:14:26;9.60;99.90
26947;DHT22;14501;52.282;10.560;2024-02-21T08:16:52;9.70;99.90
26947;DHT22;14501;52.282;10.560;2024-02-21T08:19:21;9.90;99.90
26947;DHT22;14501;52.282;10.560;2024-02-21T08:21:47;9.90;99.90
26947;DHT22;14501;52.282;10.560;2024-02-21T08:24:14;9.90;99.90
26947;DHT22;14501;52.282;10.560;2024-02-21T08:26:43;10.00;99.90
26947;DHT22;14501;52.282;10.560;2024-02-21T08:29:12;9.90;99.90
26947;DHT22;14501;52.282;10.560;2024-02-21T08:31:38;10.00;99.90
26947;DHT22;14501;52.282;10.560;2024-02-21T08:34:03;10.00;99.90
26947;DHT22;14501;52.282;10.560;2024-02-21T08:36:33;10.00;99.90
26947;DHT22;14501;52.282;10.560;2024-02-21T08:39:00;9.90;99.90
26947;DHT22;14501;52.282;10.560;2024-02-21T08:41:26;9.90;99.90
26947;DHT22;14501;52.282;10.560;2024-02-21T08:43:53;9.80;99.90
26947;DHT22;14501;52.282;10.560;2024-02-21T08:46:22;9.80;99.90
26947;DHT22;14501;52.282;10.560;2024-02-21T08:48:50;9.90;99.90
26947;DHT22;14501;52.282;10.560;2024-02-21T08:51:17;9.90;99.90
26947;DHT22;14501;52.282;10.560;2024-02-21T08:53:43;9.90;99.90
26947;DHT22;14501;52.282;10.560;2024-02-21T08:56:09;9.90;99.90
26947;DHT22;14501;52.282;10.560;2024-02-21T08:58:36;9.90;99.90
26947;DHT22;14501;52.282;10.560;2024-02-21T09:01:03;9.90;99.90
26947;DHT22;14501;52.282;10.560;2024-02-21T09:03:33;10.00;99.90
26947;DHT22;14501;52.282;10.560;2024-02-21T09:06:00;10.00;99.90
26947;DHT22;14501;52.282;10.560;2024-02-21T09:08:26;10.10;99.90
26947;DHT22;14501;52.282;10.560;2024-02-21T09:10:52;10.10;99.90
26947;DHT22;14501;52.282;10.560;2024-02-21T09:13:18;10.10;99.90
26947;DHT22;14501;52.282;10.560;2024-02-21T09:15:44;10.10;99.90
26947;DHT22;14501;52.282;10.560;2024-02-21T09:18:09;10.20;99.90
26947;DHT22;14501;52.282;10.560;2024-02-21T09:20:35;10.40;99.90
26947;DHT22;14501;52.282;10.560;2024-02-21T09:23:01;10.40;99.90
26947;DHT22;14501;52.282;10.560;2024-02-21T09:25:26;10.50;99.90
26947;DHT22;14501;52.282;10.560;2024-02-21T09:27:54;10.70;99.90
26947;DHT22;14501;52.282;10.560;2024-02-21T09:30:20;10.70;99.90
26947;DHT22;14501;52.282;10.560;2024-02-21T09:32:46;10.80;99.90
26947;DHT22;14501;52.282;10.560;2024-02-21T09:35:12;10.80;99.90
26947;DHT22;14501;52.282;10.560;2024-02-21T09:37:38;11.00;99.90
26947;DHT22;14501;52.282;10.560;2024-02-21T09:40:05;11.20;99.90
26947;DHT22;14501;52.282;10.560;2024-02-21T09:42:41;11.50;99.90
26947;DHT22;14501;52.282;10.560;2024-02-21T09:50:22;11.50;99.90
26947;DHT22;14501;52.282;10.560;2024-02-21T09:52:48;11.50;99.90
26947;DHT22;14501;52.282;10.560;2024-02-21T09:55:15;11.60;99.90
26947;DHT22;14501;52.282;10.560;2024-02-21T09:57:42;11.60;99.90
26947;DHT22;14501;52.282;10.560;2024-02-21T10:00:09;11.80;99.90
26947;DHT22;14501;52.282;10.560;2024-02-21T10:02:35;11.90;99.90
26947;DHT22;14501;52.282;10.560;2024-02-21T10:05:01;11.90;99.90
26947;DHT22;14501;52.282;10.560;2024-02-21T10:07:27;12.20;99.90
26947;DHT22;14501;52.282;10.560;2024-02-21T10:10:03;12.40;99.90
26947;DHT22;14501;52.282;10.560;2024-02-21T10:12:29;12.50;99.90
26947;DHT22;14501;52.282;10.560;2024-02-21T10:17:27;12.90;99.90
26947;DHT22;14501;52.282;10.560;2024-02-21T10:19:52;13.30;99.90
26947;DHT22;14501;52.282;10.560;2024-02-21T10:22:18;13.20;99.90
26947;DHT22;14501;52.282;10.560;2024-02-21T10:24:46;13.20;99.90
26947;DHT22;14501;52.282;10.560;2024-02-21T10:27:12;13.30;99.90
26947;DHT22;14501;52.282;10.560;2024-02-21T10:29:39;12.80;99.90
26947;DHT22;14501;52.282;10.560;2024-02-21T10:34:34;12.50;99.90
26947;DHT22;14501;52.282;10.560;2024-02-21T10:37:05;12.30;99.90
26947;DHT22;14501;52.282;10.560;2024-02-21T10:39:41;12.00;99.90
26947;DHT22;14501;52.282;10.560;2024-02-21T10:42:10;11.70;99.90
26947;DHT22;14501;52.282;10.560;2024-02-21T10:44:40;11.60;99.90
26947;DHT22;14501;52.282;10.560;2024-02-21T10:47:10;11.50;99.90
26947;DHT22;14501;52.282;10.560;2024-02-21T10:49:40;11.40;99.90
26947;DHT22;14501;52.282;10.560;2024-02-21T10:55:03;11.20;99.90
26947;DHT22;14501;52.282;10.560;2024-02-21T10:57:31;11.10;99.90
26947;DHT22;14501;52.282;10.560;2024-02-21T10:59:58;11.20;99.90
26947;DHT22;14501;52.282;10.560;2024-02-21T11:02:25;11.20;99.90
26947;DHT22;14501;52.282;10.560;2024-02-21T11:04:52;11.20;99.90
26947;DHT22;14501;52.282;10.560;2024-02-21T11:07:19;11.30;99.90
26947;DHT22;14501;52.282;10.560;2024-02-21T11:09:52;11.30;99.90
26947;DHT22;14501;52.282;10.560;2024-02-21T11:12:23;11.70;99.90
26947;DHT22;14501;52.282;10.560;2024-02-21T11:14:50;11.50;99.90
26947;DHT22;14501;52.282;10.560;2024-02-21T11:17:17;11.70;99.90
26947;DHT22;14501;52.282;10.560;2024-02-21T11:19:43;12.00;99.90
26947;DHT22;14501;52.282;10.560;2024-02-21T11:22:19;12.50;99.90
26947;DHT22;14501;52.282;10.560;2024-02-21T11:24:45;12.80;99.90
26947;DHT22;14501;52.282;10.560;2024-02-21T11:27:15;12.80;99.90
26947;DHT22;14501;52.282;10.560;2024-02-21T11:29:49;12.90;99.90
26947;DHT22;14501;52.282;10.560;2024-02-21T11:32:17;13.00;99.90
26947;DHT22;14501;52.282;10.560;2024-02-21T11:35:00;13.30;99.90
26947;DHT22;14501;52.282;10.560;2024-02-21T11:37:28;13.70;99.90
26947;DHT22;14501;52.282;10.560;2024-02-21T11:39:57;14.00;99.90
26947;DHT22;14501;52.282;10.560;2024-02-21T11:42:28;13.80;99.90
26947;DHT22;14501;52.282;10.560;2024-02-21T11:44:55;13.70;99.90
26947;DHT22;14501;52.282;10.560;2024-02-21T11:47:22;13.60;99.90
26947;DHT22;14501;52.282;10.560;2024-02-21T11:49:48;13.40;99.90
26947;DHT22;14501;52.282;10.560;2024-02-21T11:52:17;13.30;99.90
26947;DHT22;14501;52.282;10.560;2024-02-21T11:54:45;13.20;99.90
26947;DHT22;14501;52.282;10.560;2024-02-21T11:57:11;13.10;99.90
26947;DHT22;14501;52.282;10.560;2024-02-21T11:59:40;12.90;99.90
26947;DHT22;14501;52.282;10.560;2024-02-21T12:02:06;12.80;99.90
26947;DHT22;14501;52.282;10.560;2024-02-21T12:04:33;12.90;99.90
26947;DHT22;14501;52.282;10.560;2024-02-21T12:06:59;12.90;99.90
26947;DHT22;14501;52.282;10.560;2024-02-21T12:09:25;12.70;99.90
26947;DHT22;14501;52.282;10.560;2024-02-21T12:12:02;13.00;99.90
26947;DHT22;14501;52.282;10.560;2024-02-21T12:14:29;13.20;99.90
26947;DHT22;14501;52.282;10.560;2024-02-21T12:16:59;13.50;99.90
26947;DHT22;14501;52.282;10.560;2024-02-21T12:19:25;13.20;99.90
26947;DHT22;14501;52.282;10.560;2024-02-21T12:21:51;13.60;99.90
26947;DHT22;14501;52.282;10.560;2024-02-21T12:24:22;13.80;99.90
26947;DHT22;14501;52.282;10.560;2024-02-21T12:26:49;13.90;99.90
26947;DHT22;14501;52.282;10.560;2024-02-21T12:29:14;13.70;99.90
26947;DHT22;14501;52.282;10.560;2024-02-21T12:31:40;13.70;99.90
26947;DHT22;14501;52.282;10.560;2024-02-21T12:34:06;13.60;99.90
26947;DHT22;14501;52.282;10.560;2024-02-21T12:36:32;13.60;99.90
26947;DHT22;14501;52.282;10.560;2024-02-21T12:38:58;13.50;99.90
26947;DHT22;14501;52.282;10.560;2024-02-21T12:41:24;13.60;99.90
26947;DHT22;14501;52.282;10.560;2024-02-21T12:43:53;13.70;99.90
26947;DHT22;14501;52.282;10.560;2024-02-21T12:46:19;13.50;99.90
26947;DHT22;14501;52.282;10.560;2024-02-21T12:48:44;13.40;99.90
26947;DHT22;14501;52.282;10.560;2024-02-21T12:51:10;13.40;99.90
26947;DHT22;14501;52.282;10.560;2024-02-21T12:53:36;13.30;99.90
26947;DHT22;14501;52.282;10.560;2024-02-21T12:56:01;13.00;99.90
26947;DHT22;14501;52.282;10.560;2024-02-21T12:58:27;12.80;99.90
26947;DHT22;14501;52.282;10.560;2024-02-21T13:00:57;12.80;99.90
26947;DHT22;14501;52.282;10.560;2024-02-21T13:03:22;12.60;99.90
26947;DHT22;14501;52.282;10.560;2024-02-21T13:05:48;12.50;99.90
26947;DHT22;14501;52.282;10.560;2024-02-21T13:08:13;12.20;99.90
26947;DHT22;14501;52.282;10.560;2024-02-21T13:10:39;12.20;99.90
26947;DHT22;14501;52.282;10.560;2024-02-21T13:13:05;12.10;99.90
26947;DHT22;14501;52.282;10.560;2024-02-21T13:15:30;12.30;99.90
26947;DHT22;14501;52.282;10.560;2024-02-21T13:17:56;12.30;99.90
26947;DHT22;14501;52.282;10.560;2024-02-21T13:20:26;12.40;99.90
26947;DHT22;14501;52.282;10.560;2024-02-21T13:22:52;12.60;99.90
26947;DHT22;14501;52.282;10.560;2024-02-21T13:25:18;12.60;99.90
26947;DHT22;14501;52.282;10.560;2024-02-21T13:27:46;12.60;99.90
26947;DHT22;14501;52.282;10.560;2024-02-21T13:30:12;12.50;99.90
26947;DHT22;14501;52.282;10.560;2024-02-21T13:32:43;12.40;99.90
26947;DHT22;14501;52.282;10.560;2024-02-21T13:35:11;12.40;99.90
26947;DHT22;14501;52.282;10.560;2024-02-21T13:37:41;12.30;99.90
26947;DHT22;14501;52.282;10.560;2024-02-21T13:40:08;12.30;99.90
26947;DHT22;14501;52.282;10.560;2024-02-21T13:42:39;12.40;99.90
26947;DHT22;14501;52.282;10.560;2024-02-21T13:45:06;12.40;99.90
26947;DHT22;14501;52.282;10.560;2024-02-21T13:47:35;12.40;99.90
26947;DHT22;14501;52.282;10.560;2024-02-21T13:50:05;12.20;99.90
26947;DHT22;14501;52.282;10.560;2024-02-21T13:52:34;12.20;99.90
26947;DHT22;14501;52.282;10.560;2024-02-21T13:55:00;12.30;99.90
26947;DHT22;14501;52.282;10.560;2024-02-21T13:57:26;12.30;99.90
26947;DHT22;14501;52.282;10.560;2024-02-21T13:59:51;12.20;99.90
26947;DHT22;14501;52.282;10.560;2024-02-21T14:02:17;12.30;99.90
26947;DHT22;14501;52.282;10.560;2024-02-21T14:04:43;12.20;99.90
26947;DHT22;14501;52.282;10.560;2024-02-21T14:07:09;12.20;99.90
26947;DHT22;14501;52.282;10.560;2024-02-21T14:09:34;12.20;99.90
26947;DHT22;14501;52.282;10.560;2024-02-21T14:12:01;12.10;99.90
26947;DHT22;14501;52.282;10.560;2024-02-21T14:14:27;12.10;99.90
26947;DHT22;14501;52.282;10.560;2024-02-21T14:16:53;12.00;99.90
26947;DHT22;14501;52.282;10.560;2024-02-21T14:19:18;12.00;99.90
26947;DHT22;14501;52.282;10.560;2024-02-21T14:21:44;11.90;99.90
26947;DHT22;14501;52.282;10.560;2024-02-21T14:24:11;12.00;99.90
26947;DHT22;14501;52.282;10.560;2024-02-21T14:26:37;11.90;99.90
26947;DHT22;14501;52.282;10.560;2024-02-21T14:29:04;11.90;99.90
26947;DHT22;14501;52.282;10.560;2024-02-21T14:31:31;11.90;99.90
26947;DHT22;14501;52.282;10.560;2024-02-21T14:33:57;11.90;99.90
26947;DHT22;14501;52.282;10.560;2024-02-21T14:36:23;11.90;99.90
26947;DHT22;14501;52.282;10.560;2024-02-21T14:38:51;11.80;99.90
26947;DHT22;14501;52.282;10.560;2024-02-21T14:41:18;11.80;99.90
26947;DHT22;14501;52.282;10.560;2024-02-21T14:43:44;11.80;99.90
26947;DHT22;14501;52.282;10.560;2024-02-21T14:46:09;11.70;99.90
26947;DHT22;14501;52.282;10.560;2024-02-21T14:48:37;11.50;99.90
26947;DHT22;14501;52.282;10.560;2024-02-21T14:51:04;11.50;99.90
26947;DHT22;14501;52.282;10.560;2024-02-21T14:53:30;11.50;99.90
26947;DHT22;14501;52.282;10.560;2024-02-21T14:58:23;11.40;99.90
26947;DHT22;14501;52.282;10.560;2024-02-21T15:00:49;11.20;99.90
26947;DHT22;14501;52.282;10.560;2024-02-21T15:03:16;11.10;99.90
26947;DHT22;14501;52.282;10.560;2024-02-21T15:05:45;11.00;99.90
26947;DHT22;14501;52.282;10.560;2024-02-21T15:08:11;10.90;99.90
26947;DHT22;14501;52.282;10.560;2024-02-21T15:10:37;10.80;99.90
26947;DHT22;14501;52.282;10.560;2024-02-21T15:13:03;11.30;99.90
26947;DHT22;14501;52.282;10.560;2024-02-21T15:15:29;10.60;99.90
26947;DHT22;14501;52.282;10.560;2024-02-21T15:17:54;10.70;99.90
26947;DHT22;14501;52.282;10.560;2024-02-21T15:20:20;10.70;99.90
26947;DHT22;14501;52.282;10.560;2024-02-21T15:22:46;10.70;99.90
26947;DHT22;14501;52.282;10.560;2024-02-21T15:25:11;10.60;99.90
26947;DHT22;14501;52.282;10.560;2024-02-21T15:27:41;10.60;99.90
26947;DHT22;14501;52.282;10.560;2024-02-21T15:30:09;11.00;99.90
26947;DHT22;14501;52.282;10.560;2024-02-21T15:32:34;10.50;99.90
26947;DHT22;14501;52.282;10.560;2024-02-21T15:35:03;10.50;99.90
26947;DHT22;14501;52.282;10.560;2024-02-21T15:37:29;10.50;99.90
26947;DHT22;14501;52.282;10.560;2024-02-21T15:39:54;10.50;99.90